Time;durP1;ratioP1;P1;durP2;ratioP2;P2;SDS_P1;SDS_P2;PMS_P1;PMS_P2;Temp;Humidity;BMP_temperature;BMP_pressure;BME280_temperature;BME280_humidity;BME280_pressure;Samples;Min_cycle;Max_cycle;Signal;HPM_P1;HPM_P2
2024/03/18 00:02:23;;;;;;;4.30;1.25;;;10.10;99.90;;;;;;5053203;28;20400;-79
2024/03/18 00:04:48;;;;;;;3.40;1.15;;;10.50;99.90;;;;;;5056381;28;20528;-79
2024/03/18 00:07:14;;;;;;;3.85;1.50;;;10.00;99.90;;;;;;5056642;28;20466;-80
2024/03/18 00:09:39;;;;;;;3.55;1.58;;;10.40;99.90;;;;;;5056442;28;20441;-80
2024/03/18 00:12:07;;;;;;;3.40;1.60;;;10.30;99.90;;;;;;5075098;28;20387;-80
2024/03/18 00:14:32;;;;;;;2.35;1.20;;;10.20;99.90;;;;;;5074313;28;20460;-80
2024/03/18 00:16:58;;;;;;;1.40;1.30;;;10.30;99.90;;;;;;5073900;28;20383;-80
2024/03/18 00:19:25;;;;;;;1.60;1.20;;;10.20;99.90;;;;;;5056652;28;20407;-80
2024/03/18 00:21:50;;;;;;;2.30;1.35;;;;;;;;;;5056335;28;20384;-80
2024/03/18 00:24:20;;;;;;;2.07;1.60;;;10.60;99.90;;;;;;5054199;28;20397;-80
2024/03/18 00:26:46;;;;;;;1.95;1.15;;;10.00;99.90;;;;;;5065047;28;20470;-80
2024/03/18 00:29:12;;;;;;;2.33;1.20;;;10.00;99.90;;;;;;5056491;28;20419;-80
2024/03/18 00:31:38;;;;;;;1.40;1.30;;;10.40;99.90;;;;;;5074552;28;20384;-80
2024/03/18 00:34:03;;;;;;;2.10;1.40;;;9.40;99.90;;;;;;5056259;28;20380;-80
2024/03/18 00:36:30;;;;;;;1.53;1.30;;;10.50;99.90;;;;;;5070303;28;20775;-79
2024/03/18 00:38:56;;;;;;;3.70;1.30;;;9.40;99.90;;;;;;5056212;28;20942;-80
2024/03/18 00:44:07;;;;;;;5.45;1.30;;;10.00;99.90;;;;;;5073175;28;20410;-80
2024/03/18 00:46:33;;;;;;;2.50;1.80;;;10.50;99.90;;;;;;5056016;28;20395;-79
2024/03/18 00:49:01;;;;;;;2.20;1.30;;;10.20;99.90;;;;;;5077676;28;20478;-81
2024/03/18 00:51:26;;;;;;;3.85;1.05;;;10.10;99.90;;;;;;5057201;28;20398;-80
2024/03/18 00:53:52;;;;;;;1.83;1.00;;;10.20;99.90;;;;;;5070506;28;20391;-80
2024/03/18 00:56:17;;;;;;;3.67;1.47;;;9.80;99.90;;;;;;5072891;28;20823;-80
2024/03/18 00:58:43;;;;;;;1.13;0.87;;;9.60;99.90;;;;;;5055825;28;20739;-80
2024/03/18 01:01:08;;;;;;;2.00;0.98;;;10.10;99.90;;;;;;5068023;28;20413;-80
2024/03/18 01:03:34;;;;;;;1.40;0.95;;;11.40;99.90;;;;;;5072830;28;20379;-80
2024/03/18 01:06:00;;;;;;;2.70;1.53;;;10.20;99.90;;;;;;5072859;28;20890;-80
2024/03/18 01:08:26;;;;;;;1.90;0.97;;;9.70;99.90;;;;;;5073228;28;20386;-79
2024/03/18 01:10:51;;;;;;;2.30;1.00;;;10.00;99.90;;;;;;5055638;28;20395;-80
2024/03/18 01:13:17;;;;;;;1.63;1.03;;;9.90;99.90;;;;;;5072784;28;20732;-81
2024/03/18 01:15:43;;;;;;;1.92;0.90;;;10.50;99.90;;;;;;5061752;28;20403;-80
2024/03/18 01:18:09;;;;;;;2.60;1.10;;;10.10;99.90;;;;;;5035629;28;20469;-80
2024/03/18 01:20:35;;;;;;;2.00;1.10;;;10.20;99.90;;;;;;5035956;28;20769;-80
2024/03/18 01:23:07;;;;;;;2.60;1.40;;;9.70;99.90;;;;;;5067778;28;20467;-80
2024/03/18 01:25:36;;;;;;;1.30;1.10;;;10.10;99.90;;;;;;5054519;28;20834;-80
2024/03/18 01:28:02;;;;;;;2.83;1.20;;;9.70;99.90;;;;;;5070121;28;20433;-80
2024/03/18 01:30:27;;;;;;;1.63;1.03;;;9.70;99.90;;;;;;5072580;28;20891;-80
2024/03/18 01:32:53;;;;;;;2.07;1.10;;;9.50;99.90;;;;;;5054707;28;21075;-80
2024/03/18 01:35:22;;;;;;;4.95;1.30;;;10.90;99.90;;;;;;5054898;28;20775;-81
2024/03/18 01:37:49;;;;;;;3.97;1.25;;;10.10;99.90;;;;;;5054443;28;20463;-80
2024/03/18 01:40:15;;;;;;;3.05;1.45;;;9.50;99.90;;;;;;5072904;28;20388;-80
2024/03/18 01:42:41;;;;;;;2.60;1.10;;;9.70;99.90;;;;;;5054878;28;20394;-80
2024/03/18 01:45:07;;;;;;;2.75;1.40;;;9.60;99.90;;;;;;5069370;28;20410;-81
2024/03/18 01:47:33;;;;;;;1.60;1.00;;;10.00;99.90;;;;;;5054362;28;20474;-80
2024/03/18 01:49:59;;;;;;;1.70;1.20;;;9.80;99.90;;;;;;5072648;28;20864;-80
2024/03/18 01:52:25;;;;;;;2.78;1.10;;;9.50;99.90;;;;;;5072698;28;20380;-80
2024/03/18 01:54:51;;;;;;;1.80;1.50;;;9.40;99.90;;;;;;5054873;28;20763;-80
2024/03/18 01:57:17;;;;;;;2.28;1.10;;;10.10;99.90;;;;;;5054634;28;20747;-80
2024/03/18 01:59:42;;;;;;;2.05;1.48;;;9.70;99.90;;;;;;5073170;28;20387;-79
2024/03/18 02:02:09;;;;;;;1.67;1.33;;;9.80;99.90;;;;;;5053386;28;20456;-80
2024/03/18 02:04:36;;;;;;;5.60;1.88;;;9.40;99.90;;;;;;5055087;28;20407;-80
2024/03/18 02:07:16;;;;;;;5.60;1.30;;;9.90;99.90;;;;;;5055289;28;20835;-80
2024/03/18 02:09:41;;;;;;;3.13;1.50;;;9.80;99.90;;;;;;5070069;28;20368;-80
2024/03/18 02:12:07;;;;;;;1.90;1.00;;;9.00;99.90;;;;;;5067454;28;20383;-81
2024/03/18 02:14:33;;;;;;;3.50;1.10;;;9.40;99.90;;;;;;5072816;28;20418;-80
2024/03/18 02:16:58;;;;;;;1.70;1.10;;;9.70;99.90;;;;;;5075069;28;20412;-80
2024/03/18 02:19:24;;;;;;;2.67;1.00;;;9.30;99.90;;;;;;5072977;28;20478;-80
2024/03/18 02:21:49;;;;;;;2.25;0.90;;;9.70;99.90;;;;;;5058580;28;20406;-80
2024/03/18 02:24:16;;;;;;;4.20;1.20;;;9.20;99.90;;;;;;5055500;28;20401;-80
2024/03/18 02:26:41;;;;;;;2.20;1.10;;;9.80;99.90;;;;;;5075285;28;20394;-81
2024/03/18 02:29:07;;;;;;;3.15;1.35;;;9.90;99.90;;;;;;5076354;28;20910;-80
2024/03/18 02:31:32;;;;;;;1.33;1.00;;;9.30;99.90;;;;;;5058585;28;20387;-80
2024/03/18 02:33:58;;;;;;;3.20;1.00;;;9.30;99.90;;;;;;5075444;28;20391;-80
2024/03/18 02:36:24;;;;;;;2.03;1.10;;;;;;;;;;5090028;22;20436;-78
2024/03/18 02:38:51;;;;;;;1.88;1.15;;;9.70;99.90;;;;;;5074658;28;20380;-80
2024/03/18 02:41:17;;;;;;;2.38;1.20;;;9.40;99.90;;;;;;5065738;28;20399;-78
2024/03/18 02:43:42;;;;;;;1.58;0.90;;;9.00;99.90;;;;;;5073479;28;20407;-80
2024/03/18 02:46:08;;;;;;;2.70;1.23;;;9.80;99.90;;;;;;5075574;28;20384;-78
2024/03/18 02:48:33;;;;;;;2.20;1.00;;;9.50;99.90;;;;;;5080163;28;20403;-78
2024/03/18 02:50:59;;;;;;;2.58;1.35;;;9.20;99.90;;;;;;5078865;28;20383;-78
2024/03/18 02:53:24;;;;;;;3.47;1.30;;;9.40;99.90;;;;;;5076666;28;20820;-79
2024/03/18 02:55:50;;;;;;;1.90;1.20;;;9.20;99.90;;;;;;5073539;28;20401;-79
2024/03/18 02:58:17;;;;;;;2.53;1.30;;;9.30;99.90;;;;;;5070175;28;20383;-79
2024/03/18 03:00:43;;;;;;;2.30;1.40;;;9.40;99.90;;;;;;5074346;28;20432;-80
2024/03/18 03:03:08;;;;;;;3.08;1.30;;;9.30;99.90;;;;;;5074248;28;20867;-80
2024/03/18 03:05:34;;;;;;;4.63;1.40;;;9.80;99.90;;;;;;5075406;28;20410;-80
2024/03/18 03:08:00;;;;;;;1.60;1.23;;;9.20;99.90;;;;;;5076206;28;20384;-78
2024/03/18 03:10:25;;;;;;;1.58;1.30;;;9.60;99.90;;;;;;5070475;28;20384;-80
2024/03/18 03:12:51;;;;;;;2.22;1.35;;;10.60;99.90;;;;;;5069828;28;20387;-80
2024/03/18 03:15:17;;;;;;;2.95;1.63;;;;;;;;;;5075078;28;20418;-80
2024/03/18 03:17:43;;;;;;;1.90;1.20;;;9.70;99.90;;;;;;5075233;28;20380;-80
2024/03/18 03:20:09;;;;;;;3.45;1.40;;;9.10;99.90;;;;;;5074248;28;20801;-81
2024/03/18 03:22:36;;;;;;;1.80;1.27;;;9.50;99.90;;;;;;5074075;28;20790;-80
2024/03/18 03:25:02;;;;;;;1.58;1.15;;;9.00;99.90;;;;;;5067550;28;20835;-81
2024/03/18 03:27:29;;;;;;;1.77;1.30;;;9.90;99.90;;;;;;5070924;28;20407;-81
2024/03/18 03:29:54;;;;;;;1.60;1.05;;;9.50;99.90;;;;;;5067226;28;20395;-80
2024/03/18 03:32:20;;;;;;;2.47;1.20;;;9.40;99.90;;;;;;5075031;28;20391;-79
2024/03/18 03:34:45;;;;;;;2.47;1.30;;;9.40;99.90;;;;;;5073317;28;20379;-80
2024/03/18 03:37:11;;;;;;;1.60;1.20;;;9.40;99.90;;;;;;5074967;28;20407;-80
2024/03/18 03:39:36;;;;;;;1.65;1.15;;;9.30;99.90;;;;;;5075029;28;20380;-80
2024/03/18 03:42:03;;;;;;;2.05;1.20;;;9.60;99.90;;;;;;5073508;28;20379;-80
2024/03/18 03:44:29;;;;;;;2.70;1.00;;;9.50;99.90;;;;;;5067932;28;20448;-80
2024/03/18 03:46:55;;;;;;;2.80;1.20;;;9.70;99.90;;;;;;5064887;28;20954;-80
2024/03/18 03:49:20;;;;;;;2.00;1.30;;;9.60;99.90;;;;;;5074463;28;20407;-80
2024/03/18 03:51:46;;;;;;;5.60;1.27;;;8.80;99.90;;;;;;5074490;28;20379;-79
2024/03/18 03:54:12;;;;;;;4.70;1.37;;;9.20;99.90;;;;;;5075002;28;20796;-80
2024/03/18 03:56:37;;;;;;;1.47;1.00;;;10.00;99.90;;;;;;5074418;28;20407;-80
2024/03/18 03:59:03;;;;;;;3.33;1.30;;;;;;;;;;5072068;28;20387;-80
2024/03/18 04:01:29;;;;;;;2.03;1.40;;;9.60;99.90;;;;;;5071510;28;20798;-80
2024/03/18 04:03:54;;;;;;;3.00;1.40;;;9.40;99.90;;;;;;5068289;28;20407;-80
2024/03/18 04:06:20;;;;;;;3.72;1.25;;;9.70;99.90;;;;;;5074204;28;20701;-80
2024/03/18 04:08:46;;;;;;;2.70;1.60;;;9.50;99.90;;;;;;5072973;28;20384;-80
2024/03/18 04:11:11;;;;;;;2.50;1.20;;;9.30;99.90;;;;;;5073259;28;20759;-80
2024/03/18 04:13:37;;;;;;;4.47;1.40;;;9.90;99.90;;;;;;5074019;28;20498;-80
2024/03/18 04:16:03;;;;;;;1.20;1.10;;;9.50;99.90;;;;;;5072232;28;20924;-78
2024/03/18 04:18:29;;;;;;;2.08;1.30;;;9.90;99.90;;;;;;5066396;28;20404;-79
2024/03/18 04:20:54;;;;;;;4.00;1.10;;;9.80;99.90;;;;;;5072485;28;20455;-78
2024/03/18 04:23:21;;;;;;;2.40;1.40;;;;;;;;;;5072247;28;20399;-80
2024/03/18 04:25:47;;;;;;;4.40;1.40;;;9.70;99.90;;;;;;5066276;28;20412;-80
2024/03/18 04:28:13;;;;;;;2.10;1.27;;;9.60;99.90;;;;;;5074363;28;20384;-80
2024/03/18 04:30:38;;;;;;;3.00;1.23;;;10.10;99.90;;;;;;5072851;28;20384;-79
2024/03/18 04:33:06;;;;;;;2.50;1.50;;;;;;;;;;5069559;28;20400;-80
2024/03/18 04:35:31;;;;;;;3.07;1.70;;;10.00;99.90;;;;;;5070143;28;20395;-80
2024/03/18 04:37:57;;;;;;;3.73;1.47;;;9.80;99.90;;;;;;5072133;28;20408;-79
2024/03/18 04:40:24;;;;;;;3.40;1.60;;;10.10;99.90;;;;;;5074877;28;20387;-80
2024/03/18 04:42:51;;;;;;;2.92;1.60;;;9.40;99.90;;;;;;5073900;28;20422;-82
2024/03/18 04:45:18;;;;;;;4.45;1.63;;;9.90;99.90;;;;;;5072616;28;20403;-80
2024/03/18 04:47:50;;;;;;;2.00;1.50;;;9.90;99.90;;;;;;5074863;28;20429;-80
2024/03/18 04:50:21;;;;;;;3.63;1.60;;;9.40;99.90;;;;;;5060844;28;20401;-80
2024/03/18 04:52:47;;;;;;;2.72;1.83;;;9.00;99.90;;;;;;5072088;28;20400;-80
2024/03/18 04:55:13;;;;;;;3.23;1.70;;;9.10;99.90;;;;;;5072392;28;20371;-80
2024/03/18 04:57:39;;;;;;;2.00;1.50;;;9.80;99.90;;;;;;5072735;28;20422;-80
2024/03/18 05:00:09;;;;;;;2.95;1.80;;;9.30;99.90;;;;;;5073169;28;20395;-80
2024/03/18 05:02:35;;;;;;;5.22;2.10;;;9.40;99.90;;;;;;5064681;28;20486;-81
2024/03/18 05:05:00;;;;;;;3.03;1.85;;;9.60;99.90;;;;;;5071884;28;20399;-80
2024/03/18 05:07:26;;;;;;;5.10;2.53;;;9.20;99.90;;;;;;5066011;28;20496;-78
2024/03/18 05:09:55;;;;;;;2.70;1.50;;;9.30;99.90;;;;;;5072735;28;20386;-80
2024/03/18 05:12:20;;;;;;;2.78;1.80;;;9.20;99.90;;;;;;5075520;28;20453;-78
2024/03/18 05:14:47;;;;;;;2.43;1.80;;;9.80;99.90;;;;;;5074133;28;20395;-80
2024/03/18 05:17:14;;;;;;;3.28;1.73;;;9.10;99.90;;;;;;5073708;28;20391;-78
2024/03/18 05:19:39;;;;;;;2.08;1.90;;;9.10;99.90;;;;;;5073800;28;20422;-79
2024/03/18 05:22:06;;;;;;;4.80;2.10;;;9.10;99.90;;;;;;5067565;28;20424;-80
2024/03/18 05:24:32;;;;;;;5.00;2.53;;;9.60;99.90;;;;;;5064085;28;20804;-80
2024/03/18 05:26:58;;;;;;;6.37;2.33;;;9.30;99.90;;;;;;5064275;28;20396;-79
2024/03/18 05:29:23;;;;;;;6.30;2.50;;;9.30;99.90;;;;;;5072293;28;20387;-80
2024/03/18 05:31:49;;;;;;;3.77;2.00;;;9.20;99.90;;;;;;5076026;28;20383;-80
2024/03/18 05:34:14;;;;;;;6.05;2.30;;;9.20;99.90;;;;;;5072388;28;20383;-80
2024/03/18 05:36:40;;;;;;;3.80;2.10;;;9.10;99.90;;;;;;5075020;28;20406;-80
2024/03/18 05:39:08;;;;;;;4.47;2.17;;;9.00;99.90;;;;;;5072471;28;20434;-80
2024/03/18 05:41:36;;;;;;;2.60;2.20;;;9.10;99.90;;;;;;5068799;28;20401;-78
2024/03/18 05:44:03;;;;;;;5.70;2.50;;;9.50;99.90;;;;;;5069945;28;20416;-79
2024/03/18 05:46:28;;;;;;;3.30;2.10;;;9.80;99.90;;;;;;5072813;28;20376;-80
2024/03/18 05:48:54;;;;;;;3.77;2.00;;;9.10;99.90;;;;;;5074381;28;20752;-80
2024/03/18 05:51:20;;;;;;;3.60;2.20;;;8.70;99.90;;;;;;5072855;28;20384;-80
2024/03/18 05:53:45;;;;;;;4.00;2.50;;;9.20;99.90;;;;;;5074433;28;20982;-81
2024/03/18 05:56:11;;;;;;;3.22;2.15;;;9.30;99.90;;;;;;5069392;28;20398;-80
2024/03/18 05:58:40;;;;;;;4.60;2.22;;;9.10;99.90;;;;;;5071368;28;20382;-80
2024/03/18 06:01:12;;;;;;;5.82;2.80;;;9.40;99.90;;;;;;5069189;28;20927;-80
2024/03/18 06:03:39;;;;;;;3.97;2.90;;;9.00;99.90;;;;;;5073303;28;20418;-80
2024/03/18 06:06:06;;;;;;;4.90;2.60;;;;;;;;;;5074530;28;20407;-80
2024/03/18 06:08:32;;;;;;;6.57;3.00;;;9.50;99.90;;;;;;5074510;28;20768;-79
2024/03/18 06:10:57;;;;;;;3.50;2.40;;;8.80;99.90;;;;;;5076025;28;20376;-80
2024/03/18 06:13:23;;;;;;;6.07;3.30;;;9.40;99.90;;;;;;5068476;28;20394;-80
2024/03/18 06:15:50;;;;;;;4.77;3.67;;;9.80;99.90;;;;;;5066668;28;20754;-80
2024/03/18 06:18:15;;;;;;;4.65;3.42;;;9.40;99.90;;;;;;5074741;28;20391;-80
2024/03/18 06:20:43;;;;;;;4.50;3.23;;;9.40;99.90;;;;;;5071563;28;20384;-80
2024/03/18 06:23:16;;;;;;;4.63;3.00;;;10.00;99.90;;;;;;5073533;28;20415;-80
2024/03/18 06:25:55;;;;;;;4.45;3.25;;;10.40;99.90;;;;;;5065156;28;20477;-80
2024/03/18 06:28:24;;;;;;;6.65;3.35;;;9.60;99.90;;;;;;5052190;28;20904;-79
2024/03/18 06:30:52;;;;;;;4.95;2.80;;;9.60;99.90;;;;;;5056098;28;20399;-80
2024/03/18 06:33:18;;;;;;;4.03;2.65;;;9.20;99.90;;;;;;5054517;28;20393;-80
2024/03/18 06:35:45;;;;;;;5.17;2.73;;;9.40;99.90;;;;;;5056886;28;20757;-80
2024/03/18 06:38:11;;;;;;;3.08;2.47;;;9.50;99.90;;;;;;5067908;28;20395;-80
2024/03/18 06:40:37;;;;;;;5.30;2.97;;;9.60;99.90;;;;;;5056795;28;20390;-79
2024/03/18 06:43:03;;;;;;;4.03;3.13;;;9.70;99.90;;;;;;5051514;28;20385;-81
2024/03/18 06:45:28;;;;;;;3.40;3.10;;;9.70;99.90;;;;;;5051238;28;20411;-79
2024/03/18 06:47:54;;;;;;;4.03;2.90;;;9.70;99.90;;;;;;5048192;28;20441;-81
2024/03/18 06:50:20;;;;;;;4.57;2.90;;;;;;;;;;5065044;28;20389;-79
2024/03/18 06:52:46;;;;;;;3.88;2.90;;;9.90;99.90;;;;;;5076554;28;20388;-79
2024/03/18 06:55:12;;;;;;;7.13;2.80;;;9.50;99.90;;;;;;5074206;28;20449;-79
2024/03/18 06:57:37;;;;;;;3.90;2.72;;;10.00;99.90;;;;;;5078738;28;20475;-81
2024/03/18 07:00:06;;;;;;;6.20;3.10;;;10.00;99.90;;;;;;5077316;28;20449;-81
2024/03/18 07:02:34;;;;;;;4.00;2.60;;;9.90;99.90;;;;;;5078563;28;20462;-81
2024/03/18 07:05:00;;;;;;;3.20;2.90;;;10.20;99.90;;;;;;5079997;28;20457;-80
2024/03/18 07:07:25;;;;;;;5.30;2.77;;;9.60;99.90;;;;;;5074095;28;20443;-81
2024/03/18 07:09:52;;;;;;;4.10;3.20;;;9.70;99.90;;;;;;5078454;28;20379;-81
2024/03/18 07:12:18;;;;;;;4.00;2.45;;;9.70;99.90;;;;;;5078366;28;20411;-81
2024/03/18 07:14:43;;;;;;;3.70;2.50;;;10.00;99.90;;;;;;5080437;28;20379;-80
2024/03/18 07:17:09;;;;;;;3.97;3.10;;;9.60;99.90;;;;;;5075856;28;20394;-81
2024/03/18 07:19:35;;;;;;;4.43;3.00;;;8.90;99.90;;;;;;5076806;28;20384;-81
2024/03/18 07:22:01;;;;;;;3.63;2.50;;;9.70;99.90;;;;;;5076435;28;20387;-81
2024/03/18 07:24:28;;;;;;;4.30;2.92;;;9.50;99.90;;;;;;5064381;28;20404;-81
2024/03/18 07:26:53;;;;;;;4.32;2.30;;;9.80;99.90;;;;;;5078742;28;20467;-81
2024/03/18 07:29:19;;;;;;;5.07;2.97;;;9.50;99.90;;;;;;5078242;28;20854;-81
2024/03/18 07:31:45;;;;;;;3.50;2.90;;;9.60;99.90;;;;;;5075485;28;20914;-81
2024/03/18 07:34:12;;;;;;;4.20;2.57;;;9.90;99.90;;;;;;5075986;28;20384;-81
2024/03/18 07:36:41;;;;;;;3.50;2.80;;;10.30;99.90;;;;;;5075696;28;20395;-79
2024/03/18 07:39:07;;;;;;;4.30;2.80;;;;;;;;;;5080335;28;20387;-82
2024/03/18 07:41:32;;;;;;;4.68;2.88;;;10.40;99.90;;;;;;5075266;28;20860;-80
2024/03/18 07:43:59;;;;;;;3.40;2.90;;;10.50;99.90;;;;;;5077818;28;20832;-81
2024/03/18 07:46:24;;;;;;;4.50;2.70;;;10.40;99.90;;;;;;5078740;28;20371;-82
2024/03/18 07:48:50;;;;;;;4.88;3.00;;;9.90;99.90;;;;;;5080210;28;20384;-81
2024/03/18 07:51:16;;;;;;;4.97;3.10;;;10.50;99.90;;;;;;5067493;28;20382;-83
2024/03/18 07:53:42;;;;;;;3.47;2.50;;;;;;;;;;5077947;28;20451;-82
2024/03/18 07:56:07;;;;;;;5.83;2.80;;;10.70;99.90;;;;;;5078986;28;20404;-81
2024/03/18 07:58:34;;;;;;;5.90;3.00;;;10.20;99.90;;;;;;5071749;28;20387;-81
2024/03/18 08:00:59;;;;;;;6.05;3.65;;;10.20;99.90;;;;;;5070823;28;20470;-82
2024/03/18 08:03:25;;;;;;;5.30;3.20;;;9.80;99.90;;;;;;5077211;28;20415;-81
2024/03/18 08:05:51;;;;;;;3.80;2.73;;;10.50;99.90;;;;;;5080008;28;20408;-81
2024/03/18 08:08:18;;;;;;;5.40;2.80;;;10.50;99.90;;;;;;5083299;28;20871;-80
2024/03/18 08:10:43;;;;;;;4.38;3.00;;;10.10;99.90;;;;;;5086781;28;20417;-80
2024/03/18 08:13:09;;;;;;;3.55;2.80;;;;;;;;;;5078380;28;20425;-82
2024/03/18 08:15:38;;;;;;;4.05;2.90;;;10.80;99.90;;;;;;5069528;28;20387;-81
2024/03/18 08:18:04;;;;;;;4.25;3.13;;;10.50;99.90;;;;;;5075194;28;20391;-82
2024/03/18 08:20:30;;;;;;;6.97;4.10;;;10.00;99.90;;;;;;5075321;28;20388;-82
2024/03/18 08:22:55;;;;;;;3.70;3.22;;;10.30;99.90;;;;;;5069205;28;20401;-82
2024/03/18 08:25:21;;;;;;;5.20;3.70;;;10.70;99.90;;;;;;5050086;28;20409;-82
2024/03/18 08:27:46;;;;;;;3.70;2.73;;;10.80;99.90;;;;;;5056822;28;20389;-81
2024/03/18 08:30:14;;;;;;;3.10;2.80;;;10.20;99.90;;;;;;5058235;28;20409;-82
2024/03/18 08:32:40;;;;;;;3.47;3.17;;;10.50;99.90;;;;;;5059379;28;20394;-81
2024/03/18 08:35:07;;;;;;;3.22;2.60;;;10.20;99.90;;;;;;5056970;28;20415;-82
2024/03/18 08:37:33;;;;;;;3.25;2.78;;;10.30;99.90;;;;;;5058077;28;20393;-82
2024/03/18 08:39:59;;;;;;;4.85;2.75;;;10.70;99.90;;;;;;5058687;28;20527;-82
2024/03/18 08:42:25;;;;;;;4.28;3.20;;;;;;;;;;5064207;28;20385;-79
2024/03/18 08:44:51;;;;;;;2.92;2.70;;;10.90;99.90;;;;;;5070616;28;20472;-81
2024/03/18 08:47:19;;;;;;;5.85;3.30;;;11.00;99.90;;;;;;5070778;28;20393;-80
2024/03/18 08:49:47;;;;;;;9.20;6.70;;;10.00;99.90;;;;;;5069124;28;20378;-80
2024/03/18 08:52:15;;;;;;;3.80;3.10;;;11.40;99.90;;;;;;5065232;28;20384;-82
2024/03/18 08:54:41;;;;;;;4.93;3.70;;;10.80;99.90;;;;;;5054133;28;20393;-81
2024/03/18 08:57:07;;;;;;;4.50;3.90;;;10.90;99.90;;;;;;5054346;28;20488;-80
2024/03/18 08:59:34;;;;;;;6.10;4.70;;;;;;;;;;5054522;28;20868;-82
2024/03/18 09:01:59;;;;;;;4.70;3.30;;;10.80;99.90;;;;;;5071954;28;20382;-79
2024/03/18 09:04:25;;;;;;;3.30;3.00;;;10.60;99.90;;;;;;5076647;28;20487;-79
2024/03/18 09:06:51;;;;;;;3.00;2.70;;;10.70;99.90;;;;;;5058873;28;20418;-82
2024/03/18 09:09:18;;;;;;;3.40;2.80;;;10.70;99.90;;;;;;5055650;28;20465;-82
2024/03/18 09:11:44;;;;;;;3.20;2.90;;;10.40;99.90;;;;;;5054233;28;20380;-82
2024/03/18 09:14:09;;;;;;;3.10;2.77;;;11.00;99.90;;;;;;5057421;28;20893;-80
2024/03/18 09:16:35;;;;;;;4.30;2.80;;;10.80;99.90;;;;;;5060542;28;20395;-81
2024/03/18 09:19:01;;;;;;;4.68;2.83;;;;;;;;;;5055459;28;20940;-82
2024/03/18 09:21:27;;;;;;;3.20;2.58;;;10.80;99.90;;;;;;5055608;28;20397;-82
2024/03/18 09:23:52;;;;;;;4.33;2.80;;;10.70;99.90;;;;;;5055133;28;20465;-82
2024/03/18 09:26:18;;;;;;;4.05;2.40;;;10.80;99.90;;;;;;5054813;28;20390;-83
2024/03/18 09:28:44;;;;;;;6.40;3.00;;;10.60;99.90;;;;;;5055202;28;20899;-80
2024/03/18 09:31:10;;;;;;;5.72;2.90;;;10.60;99.90;;;;;;5053828;28;20388;-82
2024/03/18 09:33:35;;;;;;;4.53;2.72;;;10.90;99.90;;;;;;5054237;28;20377;-81
2024/03/18 09:36:01;;;;;;;5.38;3.50;;;10.80;99.90;;;;;;5054491;28;20447;-82
2024/03/18 09:38:27;;;;;;;4.77;3.97;;;;;;;;;;5055632;28;20392;-82
2024/03/18 09:41:03;;;;;;;3.42;3.13;;;10.70;99.90;;;;;;5059811;28;20384;-80
2024/03/18 09:43:29;;;;;;;4.72;4.18;;;;;;;;;;5054746;28;20439;-82
2024/03/18 09:45:57;;;;;;;3.75;3.45;;;11.00;99.90;;;;;;5053735;28;20401;-82
2024/03/18 09:48:24;;;;;;;6.53;4.10;;;10.50;99.90;;;;;;5054768;28;20398;-83
2024/03/18 09:50:49;;;;;;;4.35;3.90;;;10.50;99.90;;;;;;5053945;28;20385;-82
2024/03/18 09:53:15;;;;;;;5.38;4.88;;;11.10;99.90;;;;;;5054123;28;20390;-82
2024/03/18 09:55:43;;;;;;;5.30;4.33;;;11.40;99.90;;;;;;5054571;28;20916;-82
2024/03/18 09:58:15;;;;;;;5.35;4.10;;;11.20;99.90;;;;;;5054255;28;20392;-82
2024/03/18 10:00:40;;;;;;;4.47;4.07;;;13.70;99.90;;;;;;5054231;28;20447;-82
2024/03/18 10:03:17;;;;;;;5.57;4.10;;;10.50;99.90;;;;;;5055019;28;20385;-81
2024/03/18 10:05:43;;;;;;;4.10;3.70;;;10.90;99.90;;;;;;5052972;28;20401;-82
2024/03/18 10:08:14;;;;;;;4.10;3.25;;;11.50;99.90;;;;;;5053529;28;20389;-82
2024/03/18 10:10:40;;;;;;;5.13;3.10;;;11.20;99.90;;;;;;5054108;28;20392;-80
2024/03/18 10:13:09;;;;;;;3.80;3.30;;;11.10;99.90;;;;;;5053030;28;20390;-81
2024/03/18 10:15:37;;;;;;;3.75;3.30;;;11.20;99.90;;;;;;5054339;28;20400;-82
2024/03/18 10:18:04;;;;;;;3.20;2.90;;;11.00;99.90;;;;;;5053260;28;20711;-81
2024/03/18 10:20:29;;;;;;;3.88;2.60;;;11.70;99.90;;;;;;5054013;28;20381;-82
2024/03/18 10:22:55;;;;;;;3.60;2.50;;;11.50;99.90;;;;;;5052825;28;20459;-82
2024/03/18 10:25:22;;;;;;;2.80;2.60;;;11.20;99.90;;;;;;5054141;28;20910;-81
2024/03/18 10:27:53;;;;;;;3.80;2.97;;;11.00;99.90;;;;;;5052741;28;20443;-80
2024/03/18 10:30:19;;;;;;;3.10;2.80;;;;;;;;;;5054846;28;20427;-82
2024/03/18 10:32:46;;;;;;;3.20;2.90;;;11.30;99.90;;;;;;5052358;28;20390;-82
2024/03/18 10:35:20;;;;;;;3.10;2.60;;;11.70;99.90;;;;;;5054472;28;20447;-81
2024/03/18 10:37:56;;;;;;;3.35;2.80;;;11.70;99.90;;;;;;5055679;28;20789;-81
2024/03/18 10:40:34;;;;;;;2.80;2.50;;;11.60;99.90;;;;;;5057714;28;20389;-82
2024/03/18 10:43:29;;;;;;;3.10;2.20;;;11.50;99.90;;;;;;5056501;28;20414;-82
2024/03/18 10:45:55;;;;;;;2.00;1.80;;;11.90;99.90;;;;;;5050151;28;20420;-81
2024/03/18 10:48:21;;;;;;;2.20;1.50;;;11.30;99.90;;;;;;5056227;28;20392;-81
2024/03/18 10:50:48;;;;;;;1.40;1.30;;;11.70;99.90;;;;;;5056483;28;20424;-80
2024/03/18 10:53:18;;;;;;;1.67;1.00;;;12.70;99.90;;;;;;5055818;28;20390;-81
2024/03/18 10:55:45;;;;;;;2.00;1.80;;;12.60;99.90;;;;;;5068168;28;20378;-78
2024/03/18 10:58:11;;;;;;;2.40;1.92;;;13.00;99.90;;;;;;5074778;28;20389;-80
2024/03/18 11:00:37;;;;;;;2.75;2.55;;;12.70;99.90;;;;;;5077660;28;20401;-79
2024/03/18 11:03:12;;;;;;;2.70;2.30;;;12.10;99.90;;;;;;5077824;28;20442;-81
2024/03/18 11:05:47;;;;;;;3.17;2.53;;;12.10;99.90;;;;;;5056461;28;20401;-83
2024/03/18 11:08:14;;;;;;;1.80;1.70;;;12.20;99.90;;;;;;5057956;28;20373;-80
2024/03/18 11:10:39;;;;;;;2.20;2.00;;;12.10;99.90;;;;;;5058041;28;20408;-81
2024/03/18 11:13:12;;;;;;;2.03;1.93;;;11.90;99.90;;;;;;5056508;28;20389;-82
2024/03/18 11:15:38;;;;;;;2.40;1.90;;;12.60;99.90;;;;;;5055867;28;20385;-82
2024/03/18 11:18:08;;;;;;;2.00;1.90;;;12.00;99.90;;;;;;5057564;28;20450;-81
2024/03/18 11:20:48;;;;;;;3.50;2.30;;;12.10;99.90;;;;;;5057287;28;20378;-80
2024/03/18 11:23:15;;;;;;;1.50;1.40;;;12.30;99.90;;;;;;5057582;28;20439;-82
2024/03/18 11:25:40;;;;;;;1.80;1.00;;;11.70;99.90;;;;;;5055615;28;20576;-82
2024/03/18 11:28:06;;;;;;;1.43;1.03;;;11.90;99.90;;;;;;5076507;28;20887;-81
2024/03/18 11:30:34;;;;;;;2.08;1.50;;;11.70;99.90;;;;;;5075676;28;20416;-80
2024/03/18 11:33:10;;;;;;;3.50;1.80;;;11.70;99.90;;;;;;5074975;28;20429;-80
2024/03/18 11:35:40;;;;;;;2.20;2.00;;;12.40;99.90;;;;;;5076635;28;20376;-80
2024/03/18 11:38:06;;;;;;;2.97;2.30;;;11.90;99.90;;;;;;5075771;28;20400;-81
2024/03/18 11:40:36;;;;;;;2.20;1.90;;;11.30;99.90;;;;;;5091068;28;20377;-79
2024/03/18 11:43:03;;;;;;;2.90;2.00;;;11.50;99.90;;;;;;5088265;28;20386;-81
2024/03/18 11:45:28;;;;;;;2.35;1.92;;;12.60;99.90;;;;;;5079304;28;20420;-82
2024/03/18 11:48:04;;;;;;;2.10;1.90;;;12.20;99.90;;;;;;5076305;28;20407;-82
2024/03/18 11:50:34;;;;;;;2.40;2.20;;;12.50;99.90;;;;;;5075145;28;20798;-81
2024/03/18 11:53:04;;;;;;;3.78;2.22;;;12.50;99.90;;;;;;5075534;28;20376;-82
2024/03/18 11:55:33;;;;;;;3.30;2.80;;;12.50;99.90;;;;;;5074924;28;20388;-82
2024/03/18 11:57:59;;;;;;;3.10;2.80;;;12.30;99.90;;;;;;5075106;28;20463;-82
2024/03/18 12:00:25;;;;;;;3.60;3.30;;;12.70;99.90;;;;;;5076161;28;20415;-82
2024/03/18 12:02:50;;;;;;;3.60;3.20;;;12.10;99.90;;;;;;5074952;28;20877;-81
2024/03/18 12:05:16;;;;;;;3.00;2.80;;;;;;;;;;5076240;28;20414;-82
2024/03/18 12:07:43;;;;;;;3.70;2.63;;;12.40;99.90;;;;;;5074942;28;20460;-81
2024/03/18 12:10:10;;;;;;;5.00;2.60;;;12.10;99.90;;;;;;5075331;28;20380;-82
2024/03/18 12:12:37;;;;;;;3.30;3.00;;;12.20;99.90;;;;;;5075716;28;20864;-82
2024/03/18 12:15:04;;;;;;;3.60;2.72;;;12.50;99.90;;;;;;5074624;28;20890;-82
2024/03/18 12:17:31;;;;;;;2.90;2.60;;;12.20;99.90;;;;;;5070103;28;20393;-81
2024/03/18 12:20:00;;;;;;;3.40;3.10;;;12.40;99.90;;;;;;5056889;28;20385;-81
2024/03/18 12:22:28;;;;;;;4.30;3.43;;;12.20;99.90;;;;;;5056313;28;20524;-81
2024/03/18 12:30:31;;;;;;;4.63;3.50;;;;;;;;;;5056329;28;20430;-82
2024/03/18 12:32:57;;;;;;;3.50;2.80;;;12.90;99.90;;;;;;5056179;28;20411;-81
2024/03/18 12:35:23;;;;;;;3.80;2.63;;;12.50;99.90;;;;;;5055970;28;20386;-81
2024/03/18 12:37:52;;;;;;;3.53;2.78;;;12.60;99.90;;;;;;5055842;28;20900;-81
2024/03/18 12:40:18;;;;;;;2.60;2.40;;;13.00;99.90;;;;;;5055349;28;20385;-81
2024/03/18 12:42:49;;;;;;;3.08;2.47;;;12.70;99.90;;;;;;5054369;28;20400;-80
2024/03/18 12:45:14;;;;;;;2.95;2.60;;;13.20;99.90;;;;;;5054248;28;20423;-80
2024/03/18 12:47:41;;;;;;;4.47;3.00;;;12.70;99.90;;;;;;5056260;28;20985;-81
2024/03/18 12:50:08;;;;;;;3.63;2.90;;;13.10;99.90;;;;;;5054591;28;20382;-81
2024/03/18 12:52:35;;;;;;;3.38;2.83;;;12.90;99.90;;;;;;5054694;28;20389;-81
2024/03/18 12:55:04;;;;;;;3.30;2.70;;;13.00;99.90;;;;;;5054314;28;20385;-80
2024/03/18 12:57:30;;;;;;;3.40;2.90;;;12.60;99.90;;;;;;5055331;28;20439;-80
2024/03/18 12:59:55;;;;;;;3.00;2.80;;;12.50;99.90;;;;;;5054597;28;20386;-82
2024/03/18 13:02:21;;;;;;;2.90;2.53;;;12.60;99.90;;;;;;5053690;28;20888;-82
2024/03/18 13:04:46;;;;;;;3.00;2.73;;;12.60;99.90;;;;;;5054223;28;20431;-81